Nrp Polar — CTEJ — position and weather

sailwx.info

Track history (hours):
 
Tides and Currents Weather Stations Pressure Air Temp Water Temp Dewpoint Dewpoint Depression Visibility Wind Speed Wind Dir Waves Ship Positions

Nrp Polar

Last reported at 2018-Feb-04 12:10 UTC. Time now 2018-Feb-21 21:39 UTC.
Position N 38°40' W 009°09'.
Warning: this ship's position is 17 days out of date.

Length 17 m; draft 1 m.

Type: Sailing vessel. MMSI: 263142000.

Date/timePositionNaut miles runAvg speedWind from/ knotsBaromVisibWave heightAir tempDewpointWater temp
2018-Feb-04 12:10N 38°40' W 009°09'0 0.0
2018-Feb-04 12:01N 38°40' W 009°09'1 2.6
2018-Feb-04 11:31N 38°41' W 009°08'7 4.7
2018-Feb-04 10:01N 38°41' W 009°17'4 3.7
2018-Feb-04 09:01N 38°41' W 009°22'3 5.3
2018-Feb-04 08:30N 38°42' W 009°25'0 0.0
2018-Feb-03 15:57N 38°42' W 009°25'0 0.3
2018-Feb-03 15:31N 38°42' W 009°25'1 2.3
2018-Feb-03 15:01N 38°41' W 009°23'3 5.5
2018-Feb-03 14:31N 38°39' W 009°24'3 6.7
2018-Feb-03 14:00N 38°35' W 009°25'3 6.5
2018-Feb-03 13:30N 38°32' W 009°26'2 4.9
2018-Feb-03 13:00N 38°30' W 009°24'3 5.9
2018-Feb-03 12:30N 38°28' W 009°21'3 5.9
2018-Feb-03 12:00N 38°27' W 009°18'3 5.5
2018-Feb-03 11:30N 38°25' W 009°15'3 5.1
2018-Feb-03 11:00N 38°24' W 009°12'3 6.3
2018-Feb-03 10:30N 38°25' W 009°08'2 3.6
2018-Feb-03 10:00N 38°26' W 009°07'0 0.0
2018-Feb-03 09:25N 38°26' W 009°07'0 0.0
2018-Feb-02 20:54N 38°26' W 009°07'0 0.2
2018-Feb-02 20:29N 38°26' W 009°07'2 3.6
2018-Feb-02 19:59N 38°25' W 009°08'5 5.3
2018-Feb-02 19:00N 38°24' W 009°15'4 8.0
2018-Feb-02 18:30N 38°28' W 009°17'4 7.7
2018-Feb-02 18:00N 38°31' W 009°20'4 7.4
2018-Feb-02 17:30N 38°34' W 009°22'4 8.0
2018-Feb-02 17:00N 38°38' W 009°20'4 6.8
2018-Feb-02 16:28N 38°41' W 009°18'6 5.3
2018-Feb-02 15:24N 38°42' W 009°10'2 2.0
2018-Feb-02 14:30N 38°40' W 009°09'0 0.7
2018-Feb-02 14:00N 38°40' W 009°09'0 0.0
2018-Feb-02 13:27N 38°40' W 009°09'0 0.0
2018-Feb-02 13:00N 38°40' W 009°09'0 0.0
2018-Feb-02 12:31N 38°40' W 009°09'0 0.0
2018-Feb-02 12:00N 38°40' W 009°09'0 0.0
2018-Feb-02 11:23N 38°40' W 009°09'0 0.0
2018-Feb-02 10:59N 38°40' W 009°09'0 0.0
2018-Feb-02 10:30N 38°40' W 009°09'0 0.0
2018-Feb-01 11:01N 38°40' W 009°09'0 0.0
2018-Feb-01 10:24N 38°40' W 009°09'  
Track history (hours):
 
Tides and Currents Weather Stations Pressure Air Temp Water Temp Dewpoint Dewpoint Depression Visibility Wind Speed Wind Dir Waves Ship Positions

Nrp Polar

Last reported at 2018-Feb-04 12:10 UTC. Time now 2018-Feb-21 21:39 UTC.
Position N 38°40' W 009°09'.
Warning: this ship's position is 17 days out of date.

Length 17 m; draft 1 m.

Type: Sailing vessel. MMSI: 263142000.

Date/timePositionNaut miles runAvg speedWind from/ knotsBaromVisibWave heightAir tempDewpointWater temp
2018-Feb-04 12:10N 38°40' W 009°09'0 0.0
2018-Feb-04 12:01N 38°40' W 009°09'1 2.6
2018-Feb-04 11:31N 38°41' W 009°08'7 4.7
2018-Feb-04 10:01N 38°41' W 009°17'4 3.7
2018-Feb-04 09:01N 38°41' W 009°22'3 5.3
2018-Feb-04 08:30N 38°42' W 009°25'0 0.0
2018-Feb-03 15:57N 38°42' W 009°25'0 0.3
2018-Feb-03 15:31N 38°42' W 009°25'1 2.3
2018-Feb-03 15:01N 38°41' W 009°23'3 5.5
2018-Feb-03 14:31N 38°39' W 009°24'3 6.7
2018-Feb-03 14:00N 38°35' W 009°25'3 6.5
2018-Feb-03 13:30N 38°32' W 009°26'2 4.9
2018-Feb-03 13:00N 38°30' W 009°24'3 5.9
2018-Feb-03 12:30N 38°28' W 009°21'3 5.9
2018-Feb-03 12:00N 38°27' W 009°18'3 5.5
2018-Feb-03 11:30N 38°25' W 009°15'3 5.1
2018-Feb-03 11:00N 38°24' W 009°12'3 6.3
2018-Feb-03 10:30N 38°25' W 009°08'2 3.6
2018-Feb-03 10:00N 38°26' W 009°07'0 0.0
2018-Feb-03 09:25N 38°26' W 009°07'0 0.0
2018-Feb-02 20:54N 38°26' W 009°07'0 0.2
2018-Feb-02 20:29N 38°26' W 009°07'2 3.6
2018-Feb-02 19:59N 38°25' W 009°08'5 5.3
2018-Feb-02 19:00N 38°24' W 009°15'4 8.0
2018-Feb-02 18:30N 38°28' W 009°17'4 7.7
2018-Feb-02 18:00N 38°31' W 009°20'4 7.4
2018-Feb-02 17:30N 38°34' W 009°22'4 8.0
2018-Feb-02 17:00N 38°38' W 009°20'4 6.8
2018-Feb-02 16:28N 38°41' W 009°18'6 5.3
2018-Feb-02 15:24N 38°42' W 009°10'2 2.0
2018-Feb-02 14:30N 38°40' W 009°09'0 0.7
2018-Feb-02 14:00N 38°40' W 009°09'0 0.0
2018-Feb-02 13:27N 38°40' W 009°09'0 0.0
2018-Feb-02 13:00N 38°40' W 009°09'0 0.0
2018-Feb-02 12:31N 38°40' W 009°09'0 0.0
2018-Feb-02 12:00N 38°40' W 009°09'0 0.0
2018-Feb-02 11:23N 38°40' W 009°09'0 0.0
2018-Feb-02 10:59N 38°40' W 009°09'0 0.0
2018-Feb-02 10:30N 38°40' W 009°09'0 0.0
2018-Feb-01 11:01N 38°40' W 009°09'0 0.0
2018-Feb-01 10:24N 38°40' W 009°09'  

Dump ship's entire track history